createdAt,value
2024-01-16T00:00:06.157Z,-2.92
2024-01-16T00:02:34.288Z,-2.90
2024-01-16T00:05:02.304Z,-2.90
2024-01-16T00:07:30.335Z,-2.92
2024-01-16T00:09:58.348Z,-2.90
2024-01-16T00:12:26.310Z,-2.89
2024-01-16T00:14:54.788Z,-2.90
2024-01-16T00:17:22.715Z,-2.89
2024-01-16T00:19:50.737Z,-2.89
2024-01-16T00:22:18.714Z,-2.90
2024-01-16T00:24:46.735Z,-2.87
2024-01-16T00:27:14.796Z,-2.89
2024-01-16T00:29:42.954Z,-2.88
2024-01-16T00:32:10.995Z,-2.89
2024-01-16T00:34:39.090Z,-2.90
2024-01-16T00:37:07.142Z,-2.92
2024-01-16T00:39:35.121Z,-2.92
2024-01-16T00:42:04.120Z,-2.91
2024-01-16T00:44:32.121Z,-2.90
2024-01-16T00:47:02.859Z,-2.92
2024-01-16T00:49:31.049Z,-2.89
2024-01-16T00:52:01.611Z,-2.90
2024-01-16T00:54:29.596Z,-2.89
2024-01-16T00:57:00.774Z,-2.88
2024-01-16T00:59:28.998Z,-2.86
2024-01-16T01:01:57.098Z,-2.93
2024-01-16T01:04:25.095Z,-2.88
2024-01-16T01:06:53.072Z,-2.88
2024-01-16T01:09:21.193Z,-2.88
2024-01-16T01:11:49.334Z,-2.86
2024-01-16T01:14:17.583Z,-2.87
2024-01-16T01:16:45.663Z,-2.85
2024-01-16T01:19:14.076Z,-2.80
2024-01-16T01:21:42.152Z,-2.79
2024-01-16T01:24:10.286Z,-2.77
2024-01-16T01:26:38.331Z,-2.76
2024-01-16T01:29:06.320Z,-2.77
2024-01-16T01:31:34.526Z,-2.82
2024-01-16T01:34:02.775Z,-2.79
2024-01-16T01:36:30.785Z,-2.76
2024-01-16T01:38:58.769Z,-2.73
2024-01-16T01:41:26.815Z,-2.75
2024-01-16T01:43:55.096Z,-2.75
2024-01-16T01:46:24.048Z,-2.74
2024-01-16T01:48:52.326Z,-2.73
2024-01-16T01:51:20.911Z,-2.72
2024-01-16T01:53:52.524Z,-2.73
2024-01-16T01:56:22.063Z,-2.71
2024-01-16T01:58:54.693Z,-2.71
2024-01-16T02:01:23.733Z,-2.68
2024-01-16T02:03:53.887Z,-2.68
2024-01-16T02:06:22.181Z,-2.66
2024-01-16T02:08:51.012Z,-2.66
2024-01-16T02:11:19.168Z,-2.68
2024-01-16T02:13:47.505Z,-2.69
2024-01-16T02:16:27.690Z,-2.67
2024-01-16T02:18:55.768Z,-2.67
2024-01-16T02:21:26.915Z,-2.69
2024-01-16T02:23:55.263Z,-2.66
2024-01-16T02:26:23.800Z,-2.67
2024-01-16T02:28:53.777Z,-2.69
2024-01-16T02:31:21.770Z,-2.68
2024-01-16T02:33:50.042Z,-2.72
2024-01-16T02:36:18.140Z,-2.73
2024-01-16T02:38:46.854Z,-2.72
2024-01-16T02:41:17.124Z,-2.75
2024-01-16T02:43:46.113Z,-2.74
2024-01-16T02:46:15.534Z,-2.74
2024-01-16T02:48:43.968Z,-2.75
2024-01-16T02:51:12.321Z,-2.77
2024-01-16T02:53:40.441Z,-2.78
2024-01-16T02:56:09.786Z,-2.76
2024-01-16T02:58:37.854Z,-2.80
2024-01-16T03:01:05.942Z,-2.85
2024-01-16T03:03:34.018Z,-2.84
2024-01-16T03:06:02.244Z,-2.81
2024-01-16T03:08:30.454Z,-2.83
2024-01-16T03:10:58.811Z,-2.84
2024-01-16T03:13:26.828Z,-2.88
2024-01-16T03:15:54.921Z,-2.85
2024-01-16T03:18:23.653Z,-2.84
2024-01-16T03:20:52.017Z,-2.85
2024-01-16T03:23:20.125Z,-2.83
2024-01-16T03:25:48.258Z,-2.88
2024-01-16T03:28:16.275Z,-2.87
2024-01-16T03:30:44.577Z,-2.87
2024-01-16T03:33:13.021Z,-2.86
2024-01-16T03:35:41.184Z,-2.86
2024-01-16T03:38:09.327Z,-2.85
2024-01-16T03:40:37.243Z,-2.83
2024-01-16T03:43:06.620Z,-2.86
2024-01-16T03:45:34.673Z,-2.85
2024-01-16T03:48:04.812Z,-2.85
2024-01-16T03:50:34.878Z,-2.86
2024-01-16T03:53:05.043Z,-2.88
2024-01-16T03:55:33.089Z,-2.88
2024-01-16T03:58:01.114Z,-2.92
2024-01-16T04:00:29.159Z,-2.93
2024-01-16T04:02:57.334Z,-2.92
2024-01-16T04:05:25.493Z,-2.92
2024-01-16T04:07:53.582Z,-2.90
2024-01-16T04:10:21.603Z,-2.89
2024-01-16T04:12:49.701Z,-2.91
2024-01-16T04:15:20.172Z,-2.90
2024-01-16T04:17:49.605Z,-2.86
2024-01-16T04:20:17.791Z,-2.90
2024-01-16T04:22:46.805Z,-2.89
2024-01-16T04:25:15.874Z,-2.89
2024-01-16T04:27:43.809Z,-2.89
2024-01-16T04:30:12.225Z,-2.87
2024-01-16T04:32:40.362Z,-2.89
2024-01-16T04:35:09.091Z,-2.89
2024-01-16T04:37:37.968Z,-2.89
2024-01-16T04:40:09.275Z,-2.86
2024-01-16T04:42:37.377Z,-2.84
2024-01-16T04:45:05.897Z,-2.82
2024-01-16T04:47:33.991Z,-2.90
2024-01-16T04:50:01.980Z,-2.88
2024-01-16T04:52:29.985Z,-2.87
2024-01-16T04:54:57.898Z,-2.86
2024-01-16T04:57:25.876Z,-2.88
2024-01-16T04:59:54.031Z,-2.85
2024-01-16T05:02:22.471Z,-2.87
2024-01-16T05:04:52.949Z,-2.86
2024-01-16T05:07:21.701Z,-2.87
2024-01-16T05:09:50.510Z,-2.90
2024-01-16T05:12:18.595Z,-2.98
2024-01-16T05:14:46.803Z,-3.03
2024-01-16T05:17:14.826Z,-3.07
2024-01-16T05:19:42.808Z,-3.15
2024-01-16T05:22:12.076Z,-3.21
2024-01-16T05:24:40.005Z,-3.29
2024-01-16T05:27:08.706Z,-3.38
2024-01-16T05:29:43.134Z,-3.47
2024-01-16T05:32:14.525Z,-3.55
2024-01-16T05:34:42.678Z,-3.62
2024-01-16T05:37:10.578Z,-3.64
2024-01-16T05:39:39.252Z,-3.71
2024-01-16T05:42:07.544Z,-3.74
2024-01-16T05:44:35.556Z,-3.76
2024-01-16T05:47:22.200Z,-3.76
2024-01-16T05:49:50.252Z,-3.79
2024-01-16T05:52:18.331Z,-3.82
2024-01-16T05:54:46.229Z,-3.81
2024-01-16T05:57:14.186Z,-3.79
2024-01-16T05:59:42.937Z,-3.80
2024-01-16T06:02:12.256Z,-3.78
2024-01-16T06:04:40.354Z,-3.77
2024-01-16T06:07:08.490Z,-3.78
2024-01-16T06:09:41.402Z,-3.80
2024-01-16T06:12:09.439Z,-3.81
2024-01-16T06:14:37.537Z,-3.80
2024-01-16T06:17:07.271Z,-3.81
2024-01-16T06:19:35.581Z,-3.81
2024-01-16T06:22:03.605Z,-3.81
2024-01-16T06:24:37.724Z,-3.83
2024-01-16T06:27:07.712Z,-3.85
2024-01-16T06:29:36.422Z,-3.83
2024-01-16T06:32:04.896Z,-3.82
2024-01-16T06:34:33.016Z,-3.83
2024-01-16T06:37:01.062Z,-3.82
2024-01-16T06:39:29.121Z,-3.81
2024-01-16T06:41:57.199Z,-3.80
2024-01-16T06:44:25.285Z,-3.82
2024-01-16T06:46:53.278Z,-3.83
2024-01-16T06:49:21.372Z,-3.85
2024-01-16T06:51:49.587Z,-3.86
2024-01-16T06:54:17.585Z,-3.83
2024-01-16T06:56:45.587Z,-3.83
2024-01-16T06:59:13.567Z,-3.83
2024-01-16T07:01:41.675Z,-3.82
2024-01-16T07:04:09.754Z,-3.79
2024-01-16T07:06:37.939Z,-3.77
2024-01-16T07:09:06.583Z,-3.76
2024-01-16T07:11:34.895Z,-3.77
2024-01-16T07:14:02.972Z,-3.74
2024-01-16T07:16:31.065Z,-3.73
2024-01-16T07:18:59.618Z,-3.72
2024-01-16T07:21:27.703Z,-3.69
2024-01-16T07:23:56.205Z,-3.68
2024-01-16T07:26:25.083Z,-3.67
2024-01-16T07:28:53.140Z,-3.66
2024-01-16T07:31:23.892Z,-3.63
2024-01-16T07:34:00.312Z,-3.59
2024-01-16T07:36:28.674Z,-3.55
2024-01-16T07:47:22.547Z,-3.24
2024-01-16T07:49:50.835Z,-3.23
2024-01-16T07:52:18.906Z,-3.24
2024-01-16T07:54:47.019Z,-3.20
2024-01-16T07:57:15.052Z,-3.15
2024-01-16T08:00:04.628Z,-3.05
2024-01-16T08:02:35.551Z,-3.07
2024-01-16T08:05:04.461Z,-3.04
2024-01-16T08:07:32.716Z,-3.04
2024-01-16T08:10:00.808Z,-3.06
2024-01-16T08:12:29.029Z,-3.11
2024-01-16T08:14:57.082Z,-3.15
2024-01-16T08:17:25.205Z,-3.14
2024-01-16T08:19:53.377Z,-3.15
2024-01-16T08:22:21.396Z,-3.18
2024-01-16T08:24:49.370Z,-3.15
2024-01-16T08:27:18.092Z,-3.06
2024-01-16T08:29:46.027Z,-2.99
2024-01-16T08:32:14.057Z,-2.89
2024-01-16T08:34:42.080Z,-2.79
2024-01-16T08:37:10.491Z,-2.68
2024-01-16T08:39:38.681Z,-2.54
2024-01-16T08:42:06.946Z,-2.49
2024-01-16T08:44:35.093Z,-2.43
2024-01-16T08:47:05.880Z,-2.41
2024-01-16T08:49:34.631Z,-2.37
2024-01-16T08:52:04.019Z,-2.29
2024-01-16T08:54:32.363Z,-2.29
2024-01-16T08:57:00.485Z,-2.32
2024-01-16T08:59:29.639Z,-2.38
2024-01-16T09:01:57.815Z,-2.39
2024-01-16T09:04:25.990Z,-2.35
2024-01-16T09:06:54.302Z,-2.24
2024-01-16T09:09:22.547Z,-2.15
2024-01-16T09:11:50.633Z,-2.06
2024-01-16T09:14:18.812Z,-1.95
2024-01-16T09:16:46.924Z,-1.89
2024-01-16T09:19:15.019Z,-1.85
2024-01-16T09:21:42.969Z,-1.78
2024-01-16T09:24:10.973Z,-1.78
2024-01-16T09:26:39.197Z,-1.77
2024-01-16T09:29:10.144Z,-1.76
2024-01-16T09:31:41.905Z,-1.79
2024-01-16T09:34:10.347Z,-1.81
2024-01-16T09:36:38.804Z,-1.78
2024-01-16T09:39:12.359Z,-1.68
2024-01-16T09:41:40.925Z,-1.63
2024-01-16T09:44:10.193Z,-1.55
2024-01-16T09:46:39.896Z,-1.51
2024-01-16T09:49:08.421Z,-1.45
2024-01-16T09:51:36.574Z,-1.42
2024-01-16T09:54:10.022Z,-1.45
2024-01-16T09:56:43.708Z,-1.44
2024-01-16T09:59:16.225Z,-1.44
2024-01-16T10:01:45.041Z,-1.42
2024-01-16T10:04:13.314Z,-1.44
2024-01-16T10:06:47.626Z,-1.45
2024-01-16T10:09:17.174Z,-1.44
2024-01-16T10:11:46.438Z,-1.42
2024-01-16T10:14:15.345Z,-1.46
2024-01-16T10:17:07.413Z,-1.48
2024-01-16T10:19:43.553Z,-1.55
2024-01-16T10:22:27.585Z,-1.62
2024-01-16T10:25:05.891Z,-1.71
2024-01-16T10:27:35.111Z,-1.72
2024-01-16T10:30:07.157Z,-1.75
2024-01-16T10:32:37.454Z,-1.61
2024-01-16T10:35:13.527Z,-1.41
2024-01-16T10:37:43.045Z,-1.46
2024-01-16T10:40:12.310Z,-1.57
2024-01-16T10:42:40.450Z,-1.60
2024-01-16T10:45:08.659Z,-1.62
2024-01-16T10:47:38.779Z,-1.65
2024-01-16T10:50:10.403Z,-1.61
2024-01-16T10:52:47.691Z,-1.55
2024-01-16T10:55:24.417Z,-1.54
2024-01-16T10:57:53.251Z,-1.59
2024-01-16T11:00:23.087Z,-1.62
2024-01-16T11:03:08.273Z,-1.63
2024-01-16T11:05:38.508Z,-1.64
2024-01-16T11:08:07.253Z,-1.64
2024-01-16T11:10:35.392Z,-1.65
2024-01-16T11:13:05.893Z,-1.66
2024-01-16T11:15:34.554Z,-1.66
2024-01-16T11:18:04.480Z,-1.67
2024-01-16T11:20:55.223Z,-1.64
2024-01-16T11:23:21.725Z,-1.66
2024-01-16T11:25:49.797Z,-1.65
2024-01-16T11:28:17.919Z,-1.66
2024-01-16T11:30:46.181Z,-1.70
2024-01-16T11:33:32.653Z,-1.69
2024-01-16T11:36:01.419Z,-1.68
2024-01-16T11:38:34.702Z,-1.66
2024-01-16T11:41:02.689Z,-1.58
2024-01-16T11:43:34.344Z,-1.53
2024-01-16T11:46:09.706Z,-1.53
2024-01-16T11:48:39.995Z,-1.56
2024-01-16T11:51:24.677Z,-1.54
2024-01-16T11:53:52.791Z,-1.50
2024-01-16T11:56:31.014Z,-1.45
2024-01-16T11:59:58.491Z,-1.41
2024-01-16T12:02:45.451Z,-1.44
2024-01-16T12:05:13.651Z,-1.49
2024-01-16T12:07:51.362Z,-1.51
2024-01-16T12:10:24.613Z,-1.43
2024-01-16T12:13:21.274Z,-1.28
2024-01-16T12:15:49.414Z,-1.26
2024-01-16T12:18:30.763Z,-1.21
2024-01-16T12:21:15.954Z,-1.24
2024-01-16T12:23:52.433Z,-1.34
2024-01-16T12:26:24.873Z,-1.43
2024-01-16T12:28:58.385Z,-1.52
2024-01-16T12:31:29.657Z,-1.61
2024-01-16T12:34:09.460Z,-1.62
2024-01-16T12:36:39.408Z,-1.73
2024-01-16T12:39:13.866Z,-1.93
2024-01-16T12:41:47.380Z,-2.03
2024-01-16T12:44:17.344Z,-2.12
2024-01-16T12:46:59.129Z,-2.14
2024-01-16T12:49:27.376Z,-2.21
2024-01-16T12:52:27.646Z,-2.25
2024-01-16T12:55:02.478Z,-2.27
2024-01-16T12:57:30.803Z,-2.26
2024-01-16T13:00:02.144Z,-2.26
2024-01-16T13:02:31.956Z,-2.32
2024-01-16T13:05:04.696Z,-2.33
2024-01-16T13:07:35.189Z,-2.32
2024-01-16T13:10:13.799Z,-2.23
2024-01-16T13:12:42.389Z,-2.32
2024-01-16T13:15:12.558Z,-2.41
2024-01-16T13:17:40.939Z,-2.44
2024-01-16T13:20:11.105Z,-2.45
2024-01-16T13:22:44.858Z,-2.49
2024-01-16T13:25:16.486Z,-2.50
2024-01-16T13:27:44.688Z,-2.52
2024-01-16T13:30:13.612Z,-2.57
2024-01-16T13:32:42.184Z,-2.61
2024-01-16T13:36:54.408Z,-2.62
2024-01-16T13:39:28.592Z,-2.68
2024-01-16T13:41:57.063Z,-2.77
2024-01-16T13:44:25.980Z,-2.82
2024-01-16T13:47:01.518Z,-2.85
2024-01-16T13:49:35.780Z,-2.91
2024-01-16T13:52:04.715Z,-2.94
2024-01-16T13:54:32.884Z,-2.98
2024-01-16T13:57:06.850Z,-2.97
2024-01-16T13:59:37.588Z,-3.01
2024-01-16T14:02:17.340Z,-3.06
2024-01-16T14:04:45.503Z,-3.11
2024-01-16T14:07:14.467Z,-3.14
2024-01-16T14:09:45.179Z,-3.15
2024-01-16T14:12:15.834Z,-3.18
2024-01-16T14:14:45.885Z,-3.14
2024-01-16T14:17:14.094Z,-3.10
2024-01-16T14:19:42.492Z,-3.10
2024-01-16T14:22:11.231Z,-3.08
2024-01-16T14:24:39.529Z,-3.05
2024-01-16T14:27:08.381Z,-3.01
2024-01-16T14:29:39.258Z,-2.98
2024-01-16T14:32:07.341Z,-2.94
2024-01-16T14:34:35.652Z,-2.93
2024-01-16T14:37:04.033Z,-2.92
2024-01-16T14:39:32.500Z,-2.89
2024-01-16T14:42:01.171Z,-2.78
2024-01-16T14:44:29.537Z,-2.74
2024-01-16T14:46:57.711Z,-2.73
2024-01-16T14:49:26.676Z,-2.74
2024-01-16T14:51:54.854Z,-2.74
2024-01-16T14:54:22.954Z,-2.73
2024-01-16T14:56:51.213Z,-2.70
2024-01-16T14:59:19.457Z,-2.67
2024-01-16T15:01:48.395Z,-2.66
2024-01-16T15:04:17.011Z,-2.65
2024-01-16T15:06:45.314Z,-2.62
2024-01-16T15:09:14.010Z,-2.55
2024-01-16T15:11:46.106Z,-2.47
2024-01-16T15:14:18.297Z,-2.43
2024-01-16T15:16:47.177Z,-2.41
2024-01-16T15:19:15.818Z,-2.41
2024-01-16T15:21:44.152Z,-2.41
2024-01-16T15:24:17.509Z,-2.41
2024-01-16T15:26:46.301Z,-2.45
2024-01-16T15:29:14.592Z,-2.48
2024-01-16T15:31:42.632Z,-2.53
2024-01-16T15:34:12.967Z,-2.56
2024-01-16T15:36:43.013Z,-2.57
2024-01-16T15:39:11.761Z,-2.59
2024-01-16T15:41:39.941Z,-2.60
2024-01-16T15:44:11.654Z,-2.59
2024-01-16T15:46:59.352Z,-2.59
2024-01-16T15:49:28.467Z,-2.61
2024-01-16T15:51:57.783Z,-2.61
2024-01-16T15:54:26.341Z,-2.59
2024-01-16T15:56:55.445Z,-2.65
2024-01-16T15:59:37.436Z,-2.67
2024-01-16T16:02:05.502Z,-2.69
2024-01-16T16:04:33.650Z,-2.73
2024-01-16T16:07:02.151Z,-2.78
2024-01-16T16:09:30.255Z,-2.85
2024-01-16T16:11:58.330Z,-2.95
2024-01-16T16:14:29.499Z,-3.02
2024-01-16T16:16:58.424Z,-3.08
2024-01-16T16:19:26.720Z,-3.17
2024-01-16T16:21:57.725Z,-3.26
2024-01-16T16:24:25.880Z,-3.31
2024-01-16T16:26:56.407Z,-3.38
2024-01-16T16:29:24.776Z,-3.43
2024-01-16T16:31:52.905Z,-3.49
2024-01-16T16:34:21.084Z,-3.55
2024-01-16T16:36:49.702Z,-3.59
2024-01-16T16:39:18.728Z,-3.63
2024-01-16T16:41:47.972Z,-3.66
2024-01-16T16:44:16.282Z,-3.68
2024-01-16T16:46:44.528Z,-3.72
2024-01-16T16:49:12.674Z,-3.76
2024-01-16T16:51:43.392Z,-3.81
2024-01-16T16:54:12.346Z,-3.84
2024-01-16T16:56:45.486Z,-3.87
2024-01-16T16:59:13.752Z,-3.91
2024-01-16T17:01:41.813Z,-3.92
2024-01-16T17:04:31.958Z,-3.91
2024-01-16T17:07:00.461Z,-3.91
2024-01-16T17:09:28.825Z,-3.91
2024-01-16T17:11:57.517Z,-3.94
2024-01-16T17:14:25.888Z,-3.94
2024-01-16T17:16:53.902Z,-3.98
2024-01-16T17:19:25.335Z,-4.01
2024-01-16T17:21:55.452Z,-4.03
2024-01-16T17:24:24.144Z,-4.07
2024-01-16T17:26:53.142Z,-4.10
2024-01-16T17:29:22.509Z,-4.16
2024-01-16T17:31:56.405Z,-4.17
2024-01-16T17:34:24.728Z,-4.21
2024-01-16T17:36:53.378Z,-4.24
2024-01-16T17:39:22.747Z,-4.27
2024-01-16T17:41:50.979Z,-4.30
2024-01-16T17:44:19.747Z,-4.33
2024-01-16T17:46:47.888Z,-4.34
2024-01-16T17:49:16.005Z,-4.34
2024-01-16T17:51:48.278Z,-4.35
2024-01-16T17:54:17.032Z,-4.37
2024-01-16T17:56:48.629Z,-4.39
2024-01-16T17:59:17.344Z,-4.43
2024-01-16T18:01:45.507Z,-4.43
2024-01-16T18:04:14.522Z,-4.46
2024-01-16T18:06:44.587Z,-4.47
2024-01-16T18:09:13.025Z,-4.48
2024-01-16T18:11:54.152Z,-4.48
2024-01-16T18:14:23.226Z,-4.49
2024-01-16T18:16:52.857Z,-4.49
2024-01-16T18:19:26.020Z,-4.47
2024-01-16T18:21:56.556Z,-4.45
2024-01-16T18:24:24.881Z,-4.43
2024-01-16T18:26:53.839Z,-4.37
2024-01-16T18:29:22.181Z,-4.33
2024-01-16T18:31:51.307Z,-4.32
2024-01-16T18:34:22.840Z,-4.28
2024-01-16T18:36:51.293Z,-4.23
2024-01-16T18:39:21.148Z,-4.25
2024-01-16T18:41:50.923Z,-4.27
2024-01-16T18:44:20.636Z,-4.28
2024-01-16T18:46:48.666Z,-4.30
2024-01-16T18:49:17.610Z,-4.29
2024-01-16T18:51:48.344Z,-4.28
2024-01-16T18:54:17.212Z,-4.27
2024-01-16T18:56:45.548Z,-4.23
2024-01-16T18:59:14.665Z,-4.20
2024-01-16T19:01:43.091Z,-4.19
2024-01-16T19:04:13.938Z,-4.17
2024-01-16T19:12:23.525Z,-4.17
2024-01-16T19:14:51.631Z,-4.21
2024-01-16T19:17:19.953Z,-4.24
2024-01-16T19:19:48.065Z,-4.28
2024-01-16T19:22:17.495Z,-4.30
2024-01-16T19:24:45.473Z,-4.32
2024-01-16T19:27:13.461Z,-4.37
2024-01-16T19:29:42.232Z,-4.41
2024-01-16T19:32:10.306Z,-4.42
2024-01-16T19:34:40.483Z,-4.45
2024-01-16T19:37:08.803Z,-4.48
2024-01-16T19:39:43.478Z,-4.52
2024-01-16T19:42:21.650Z,-4.54
2024-01-16T19:44:50.305Z,-4.55
2024-01-16T19:47:20.984Z,-4.57
2024-01-16T19:49:50.223Z,-4.57
2024-01-16T19:52:18.350Z,-4.56
2024-01-16T19:54:46.348Z,-4.60
2024-01-16T19:57:14.928Z,-4.61
2024-01-16T19:59:43.181Z,-4.61
2024-01-16T20:02:11.119Z,-4.62
2024-01-16T20:04:40.526Z,-4.66
2024-01-16T20:07:15.553Z,-4.67
2024-01-16T20:09:45.760Z,-4.67
2024-01-16T20:12:14.659Z,-4.65
2024-01-16T20:14:44.002Z,-4.65
2024-01-16T20:17:12.036Z,-4.65
2024-01-16T20:19:41.356Z,-4.64
2024-01-16T20:22:24.070Z,-4.61
2024-01-16T20:25:02.961Z,-4.58
2024-01-16T20:27:35.603Z,-4.56
2024-01-16T20:30:11.994Z,-4.52
2024-01-16T20:32:45.059Z,-4.48
2024-01-16T20:35:14.265Z,-4.44
2024-01-16T20:37:42.911Z,-4.42
2024-01-16T20:40:11.695Z,-4.43
2024-01-16T20:42:40.061Z,-4.45
2024-01-16T20:45:37.104Z,-4.47
2024-01-16T20:48:12.766Z,-4.48
2024-01-16T20:50:42.330Z,-4.50
2024-01-16T20:53:11.531Z,-4.51
2024-01-16T20:55:40.623Z,-4.52
2024-01-16T20:58:13.596Z,-4.52
2024-01-16T21:00:43.931Z,-4.53
2024-01-16T21:03:13.028Z,-4.53
2024-01-16T21:05:41.378Z,-4.56
2024-01-16T21:08:12.343Z,-4.57
2024-01-16T21:10:43.525Z,-4.56
2024-01-16T21:13:15.245Z,-4.57
2024-01-16T21:15:44.499Z,-4.54
2024-01-16T21:18:12.618Z,-4.49
2024-01-16T21:20:40.723Z,-4.49
2024-01-16T21:23:09.300Z,-4.50
2024-01-16T21:25:37.367Z,-4.52
2024-01-16T21:28:05.856Z,-4.54
2024-01-16T21:30:34.278Z,-4.55
2024-01-16T21:33:03.609Z,-4.54
2024-01-16T21:35:35.201Z,-4.51
2024-01-16T21:38:04.766Z,-4.51
2024-01-16T21:40:35.235Z,-4.50
2024-01-16T21:43:04.756Z,-4.53
2024-01-16T21:45:32.766Z,-4.53
2024-01-16T21:48:00.934Z,-4.52
2024-01-16T21:50:37.107Z,-4.46
2024-01-16T21:53:06.312Z,-4.39
2024-01-16T21:55:34.270Z,-4.41
2024-01-16T21:58:02.489Z,-4.43
2024-01-16T22:00:34.557Z,-4.47
2024-01-16T22:03:08.154Z,-4.44
2024-01-16T22:05:36.696Z,-4.37
2024-01-16T22:08:06.810Z,-4.25
2024-01-16T22:10:37.278Z,-4.15
2024-01-16T22:13:06.111Z,-4.10
2024-01-16T22:15:35.132Z,-4.01
2024-01-16T22:18:04.606Z,-3.94
2024-01-16T22:20:33.817Z,-3.89
2024-01-16T22:23:02.104Z,-3.92
2024-01-16T22:25:30.089Z,-3.92
2024-01-16T22:27:58.431Z,-3.88
2024-01-16T22:30:27.605Z,-3.84
2024-01-16T22:32:55.987Z,-3.79
2024-01-16T22:35:25.169Z,-3.74
2024-01-16T22:37:53.593Z,-3.71
2024-01-16T22:40:21.665Z,-3.70
2024-01-16T22:42:49.584Z,-3.69
2024-01-16T22:45:17.605Z,-3.65
2024-01-16T22:47:46.061Z,-3.61
2024-01-16T22:50:14.106Z,-3.65
2024-01-16T22:52:42.238Z,-3.75
2024-01-16T22:55:10.452Z,-3.83
2024-01-16T22:57:38.470Z,-3.88
2024-01-16T23:00:21.586Z,-3.93
2024-01-16T23:02:49.797Z,-3.98
2024-01-16T23:05:18.569Z,-4.06
2024-01-16T23:07:47.000Z,-4.10
2024-01-16T23:10:16.078Z,-4.09
2024-01-16T23:12:44.473Z,-4.08
2024-01-16T23:15:12.906Z,-4.06
2024-01-16T23:17:40.992Z,-4.04
2024-01-16T23:20:14.214Z,-4.03
2024-01-16T23:22:45.540Z,-4.04
2024-01-16T23:25:14.389Z,-4.07
2024-01-16T23:27:44.101Z,-4.10
2024-01-16T23:30:12.949Z,-4.10
2024-01-16T23:32:41.276Z,-4.16
2024-01-16T23:35:10.656Z,-4.19
2024-01-16T23:37:41.376Z,-4.24
2024-01-16T23:40:13.855Z,-4.27
2024-01-16T23:42:44.029Z,-4.26
2024-01-16T23:45:20.825Z,-4.27
2024-01-16T23:47:55.891Z,-4.32
2024-01-16T23:50:25.246Z,-4.38
2024-01-16T23:52:54.256Z,-4.39
2024-01-16T23:55:23.893Z,-4.40
2024-01-16T23:57:52.817Z,-4.42
